KANW Airport (Ainsworth Rgnl) Information

FAA: ANW - ICAO: KANW

KANW Airport Location

State Nebraska
County Brown
City Ainsworth
KANW Airport is 6 miles northwest of Ainsworth, NE.
Latitude 42-34-45.2000N
Longitude 099-59-34.7000W
Elevation 2,588ft

KANW Airport METARs

METAR KANW 262235Z AUTO 30004KT 10SM CLR 16/M03 A2987 RMK AO2 T01581035
Altimeter 29.87"
Temperature 15.8°C (60.4°F)
Wind 300° at 4KT
Clouds Skies are clear.
Visibility 10.0mi
Time observed: 2021-11-26T22:35:00Z

KANW Airport Details

Status Operational
Activation December 1944
Ownership Public
Usage Public
Chart OMAHA
ATC on-site No
Beacon schedule sunset-sunrise
Beacon color clear green

KANW Airport Contacts

Owner AINSWORTH ARPT AUTH
Owner address PO BOX 84, AINSWORTH, NE 69210-0084
Owner phone 402-387-1491
Manager WILLIAM GALT
Manager address 543 BIRCH CREEK RD, WHITE SULPHUR SRPINGS, MT 59645
Manager phone 406 547 2107

KANW Airport (Ainsworth Rgnl) Radio Frequencies

KANW (Airport) Radio Frequencies

UNICOM 122.8
Common traffic advisory frequency (CTAF) 122.8